Terminal Aerodrome Forecast
Issued by NWS North Platte, NE

Home | Current Version | Previous Version | Text Only | Print | Product List | Glossary On
Versions: 1 2 3 4 5 6 7 8 9 10 11 12 13 14 15
011
FTUS43 KLBF 180520
TAFLBF
TAF
KLBF 180520Z 1806/1906 20008KT P6SM SCT250
     FM181400 30008KT P6SM FEW250
     FM181600 35016G25KT P6SM SKC
     FM182200 03009KT P6SM SKC
     FM190200 VRB06KT P6SM SKC=

USA.gov is the U.S. government's official web portal to all federal, state and local government web resources and services.